Volcan De Teneguia — ECLA — position and weather

sailwx.info

Track history (hours):
 
Tides and Currents Weather Stations Pressure Air Temp Water Temp Dewpoint Dewpoint Depression Visibility Wind Speed Wind Dir Waves Ship Positions

Volcan De Teneguia

Last reported at 2016-Apr-30 04:17 UTC. Time now 2016-May-02 12:36 UTC.
Position N 29°07' W 015°23'.

Length 145 m; draft 5.2 m.

Type: Ship (hazmat cat A). MMSI: 225317000.

Date/timePositionNaut miles runAvg speedWind from/ knotsBaromVisibWave heightAir tempDewpointWater temp
2016-Apr-30 04:17N 29°07' W 015°23'1014.5
2016-Apr-30 03:33N 29°00' W 015°32'1414.3
2016-Apr-30 02:34N 28°50' W 015°43'1414.1
2016-Apr-30 01:33N 28°40' W 015°55'1413.7
2016-Apr-30 00:33N 28°31' W 016°07'6 0.8
2016-Apr-29 17:25N 28°28' W 016°12'1314.9
2016-Apr-29 16:33N 28°24' W 015°58'1515.1
2016-Apr-29 15:33N 28°19' W 015°42'1514.9
2016-Apr-29 14:33N 28°13' W 015°27'5 4.4
2016-Apr-29 13:30N 28°09' W 015°25'0 0.0
2016-Apr-29 12:15N 28°09' W 015°25'0 0.0
2016-Apr-29 11:33N 28°09' W 015°25'0 0.0
2016-Apr-29 10:33N 28°09' W 015°25'0 0.0
2016-Apr-29 09:06N 28°09' W 015°25'0 0.0
2016-Apr-29 08:33N 28°09' W 015°25'0 0.0
2016-Apr-29 07:33N 28°09' W 015°25'0 0.0
2016-Apr-29 06:24N 28°09' W 015°25'2 2.7
2016-Apr-29 05:33N 28°07' W 015°23'1312.7
2016-Apr-29 04:33N 28°17' W 015°13'1414.3
2016-Apr-29 03:33N 28°28' W 015°03'1413.9
2016-Apr-29 02:33N 28°38' W 014°52'  
2016-Apr-23 11:22N 30°05' W 014°18'1314.8
2016-Apr-23 10:30N 29°56' W 014°29'4414.7
2016-Apr-23 07:31N 29°25' W 015°04'1414.3
2016-Apr-23 06:33N 29°15' W 015°15'1414.5
2016-Apr-23 05:33N 29°05' W 015°27'1414.5
2016-Apr-23 04:33N 28°54' W 015°38'1414.2
2016-Apr-23 03:33N 28°44' W 015°50'1414.5
2016-Apr-23 02:33N 28°34' W 016°01'1211.1
2016-Apr-23 01:30N 28°29' W 016°14'0 0.0
2016-Apr-22 23:27N 28°29' W 016°14'0 0.0
2016-Apr-22 22:33N 28°29' W 016°14'0 0.0
2016-Apr-22 21:18N 28°29' W 016°14'0 0.0
2016-Apr-22 20:18N 28°29' W 016°14'0 0.0
2016-Apr-22 19:30N 28°29' W 016°14'0 0.0
2016-Apr-22 18:32N 28°29' W 016°14'1111.1
2016-Apr-22 17:33N 28°25' W 016°03'1515.0
2016-Apr-22 16:33N 28°20' W 015°47'1515.0
2016-Apr-22 15:33N 28°14' W 015°31'8 8.1
2016-Apr-22 14:33N 28°08' W 015°25'1 0.6
2016-Apr-22 13:29N 28°09' W 015°25'0 0.0
2016-Apr-22 12:29N 28°09' W 015°25'0 0.0
2016-Apr-22 11:32N 28°09' W 015°25'0 0.0
2016-Apr-22 10:32N 28°09' W 015°25'0 0.0
2016-Apr-22 09:32N 28°09' W 015°25'0 0.0
2016-Apr-22 08:32N 28°09' W 015°25'0 0.0
2016-Apr-22 07:32N 28°09' W 015°25'0 0.0
2016-Apr-22 06:32N 28°09' W 015°25'2 2.2
2016-Apr-22 05:33N 28°07' W 015°23'1211.6
2016-Apr-22 04:33N 28°16' W 015°14'1212.5
2016-Apr-22 03:33N 28°25' W 015°05'1312.9
2016-Apr-22 02:33N 28°35' W 014°56'1312.8
2016-Apr-22 01:33N 28°45' W 014°46'1512.8
2016-Apr-22 00:25N 28°56' W 014°35'1212.9
2016-Apr-21 23:31N 29°04' W 014°26'1213.0
2016-Apr-21 22:33N 29°14' W 014°17'  
Track history (hours):
 
Tides and Currents Weather Stations Pressure Air Temp Water Temp Dewpoint Dewpoint Depression Visibility Wind Speed Wind Dir Waves Ship Positions

Volcan De Teneguia

Last reported at 2016-Apr-30 04:17 UTC. Time now 2016-May-02 12:36 UTC.
Position N 29°07' W 015°23'.

Length 145 m; draft 5.2 m.

Type: Ship (hazmat cat A). MMSI: 225317000.

Date/timePositionNaut miles runAvg speedWind from/ knotsBaromVisibWave heightAir tempDewpointWater temp
2016-Apr-30 04:17N 29°07' W 015°23'1014.5
2016-Apr-30 03:33N 29°00' W 015°32'1414.3
2016-Apr-30 02:34N 28°50' W 015°43'1414.1
2016-Apr-30 01:33N 28°40' W 015°55'1413.7
2016-Apr-30 00:33N 28°31' W 016°07'6 0.8
2016-Apr-29 17:25N 28°28' W 016°12'1314.9
2016-Apr-29 16:33N 28°24' W 015°58'1515.1
2016-Apr-29 15:33N 28°19' W 015°42'1514.9
2016-Apr-29 14:33N 28°13' W 015°27'5 4.4
2016-Apr-29 13:30N 28°09' W 015°25'0 0.0
2016-Apr-29 12:15N 28°09' W 015°25'0 0.0
2016-Apr-29 11:33N 28°09' W 015°25'0 0.0
2016-Apr-29 10:33N 28°09' W 015°25'0 0.0
2016-Apr-29 09:06N 28°09' W 015°25'0 0.0
2016-Apr-29 08:33N 28°09' W 015°25'0 0.0
2016-Apr-29 07:33N 28°09' W 015°25'0 0.0
2016-Apr-29 06:24N 28°09' W 015°25'2 2.7
2016-Apr-29 05:33N 28°07' W 015°23'1312.7
2016-Apr-29 04:33N 28°17' W 015°13'1414.3
2016-Apr-29 03:33N 28°28' W 015°03'1413.9
2016-Apr-29 02:33N 28°38' W 014°52'  
2016-Apr-23 11:22N 30°05' W 014°18'1314.8
2016-Apr-23 10:30N 29°56' W 014°29'4414.7
2016-Apr-23 07:31N 29°25' W 015°04'1414.3
2016-Apr-23 06:33N 29°15' W 015°15'1414.5
2016-Apr-23 05:33N 29°05' W 015°27'1414.5
2016-Apr-23 04:33N 28°54' W 015°38'1414.2
2016-Apr-23 03:33N 28°44' W 015°50'1414.5
2016-Apr-23 02:33N 28°34' W 016°01'1211.1
2016-Apr-23 01:30N 28°29' W 016°14'0 0.0
2016-Apr-22 23:27N 28°29' W 016°14'0 0.0
2016-Apr-22 22:33N 28°29' W 016°14'0 0.0
2016-Apr-22 21:18N 28°29' W 016°14'0 0.0
2016-Apr-22 20:18N 28°29' W 016°14'0 0.0
2016-Apr-22 19:30N 28°29' W 016°14'0 0.0
2016-Apr-22 18:32N 28°29' W 016°14'1111.1
2016-Apr-22 17:33N 28°25' W 016°03'1515.0
2016-Apr-22 16:33N 28°20' W 015°47'1515.0
2016-Apr-22 15:33N 28°14' W 015°31'8 8.1
2016-Apr-22 14:33N 28°08' W 015°25'1 0.6
2016-Apr-22 13:29N 28°09' W 015°25'0 0.0
2016-Apr-22 12:29N 28°09' W 015°25'0 0.0
2016-Apr-22 11:32N 28°09' W 015°25'0 0.0
2016-Apr-22 10:32N 28°09' W 015°25'0 0.0
2016-Apr-22 09:32N 28°09' W 015°25'0 0.0
2016-Apr-22 08:32N 28°09' W 015°25'0 0.0
2016-Apr-22 07:32N 28°09' W 015°25'0 0.0
2016-Apr-22 06:32N 28°09' W 015°25'2 2.2
2016-Apr-22 05:33N 28°07' W 015°23'1211.6
2016-Apr-22 04:33N 28°16' W 015°14'1212.5
2016-Apr-22 03:33N 28°25' W 015°05'1312.9
2016-Apr-22 02:33N 28°35' W 014°56'1312.8
2016-Apr-22 01:33N 28°45' W 014°46'1512.8
2016-Apr-22 00:25N 28°56' W 014°35'1212.9
2016-Apr-21 23:31N 29°04' W 014°26'1213.0
2016-Apr-21 22:33N 29°14' W 014°17'  

Dump ship's entire track history